createdAt,value
2022-10-03T00:01:10.294Z,22.00
2022-10-03T00:03:37.252Z,21.94
2022-10-03T00:06:04.182Z,21.94
2022-10-03T00:08:31.105Z,21.88
2022-10-03T00:10:58.011Z,21.81
2022-10-03T00:13:24.928Z,21.81
2022-10-03T00:15:51.884Z,21.75
2022-10-03T00:18:18.797Z,21.69
2022-10-03T00:20:45.702Z,21.69
2022-10-03T00:23:12.640Z,21.63
2022-10-03T00:25:39.529Z,21.63
2022-10-03T00:28:06.488Z,21.56
2022-10-03T00:30:33.459Z,21.56
2022-10-03T00:33:00.420Z,21.50
2022-10-03T00:35:27.332Z,21.44
2022-10-03T00:37:54.263Z,21.44
2022-10-03T00:40:21.177Z,21.38
2022-10-03T00:42:48.075Z,21.38
2022-10-03T00:45:15.000Z,21.31
2022-10-03T00:47:41.907Z,21.31
2022-10-03T00:50:08.819Z,21.25
2022-10-03T00:52:35.721Z,21.25
2022-10-03T00:55:02.639Z,21.19
2022-10-03T00:57:29.569Z,21.19
2022-10-03T00:59:56.458Z,21.13
2022-10-03T01:02:23.477Z,21.13
2022-10-03T01:04:50.429Z,21.06
2022-10-03T01:07:17.340Z,21.00
2022-10-03T01:09:44.264Z,21.00
2022-10-03T01:12:11.181Z,20.94
2022-10-03T01:14:38.103Z,20.94
2022-10-03T01:17:04.993Z,20.94
2022-10-03T01:19:31.879Z,20.88
2022-10-03T01:21:58.786Z,20.88
2022-10-03T01:24:25.716Z,20.81
2022-10-03T01:26:52.633Z,20.81
2022-10-03T01:29:19.519Z,20.81
2022-10-03T01:31:46.515Z,20.75
2022-10-03T01:34:13.445Z,20.69
2022-10-03T01:36:40.355Z,20.69
2022-10-03T01:39:07.296Z,20.69
2022-10-03T01:41:34.200Z,20.69
2022-10-03T01:44:01.181Z,20.63
2022-10-03T01:46:28.159Z,20.56
2022-10-03T01:48:55.103Z,20.56
2022-10-03T01:51:22.039Z,20.56
2022-10-03T01:53:48.952Z,20.50
2022-10-03T01:56:15.849Z,20.50
2022-10-03T01:58:42.771Z,20.50
2022-10-03T02:01:09.750Z,20.44
2022-10-03T02:03:36.753Z,20.44
2022-10-03T02:06:03.679Z,20.38
2022-10-03T02:08:30.573Z,20.38
2022-10-03T02:10:57.533Z,20.38
2022-10-03T02:13:24.440Z,20.31
2022-10-03T02:15:51.383Z,20.31
2022-10-03T02:18:18.332Z,20.31
2022-10-03T02:20:45.242Z,20.25
2022-10-03T02:23:12.171Z,20.25
2022-10-03T02:25:39.077Z,20.25
2022-10-03T02:28:06.094Z,20.19
2022-10-03T02:30:33.020Z,20.19
2022-10-03T02:32:59.935Z,20.13
2022-10-03T02:35:26.846Z,20.13
2022-10-03T02:37:53.758Z,20.13
2022-10-03T02:40:20.667Z,20.06
2022-10-03T02:42:47.590Z,20.06
2022-10-03T02:45:14.508Z,20.06
2022-10-03T02:47:41.408Z,20.00
2022-10-03T02:50:08.355Z,20.00
2022-10-03T02:52:35.268Z,20.00
2022-10-03T02:55:02.170Z,19.94
2022-10-03T02:57:29.100Z,19.94
2022-10-03T02:59:55.994Z,19.94
2022-10-03T03:02:23.136Z,19.94
2022-10-03T03:04:50.221Z,19.88
2022-10-03T03:07:18.672Z,19.88
2022-10-03T03:09:45.788Z,19.81
2022-10-03T03:12:23.285Z,19.81
2022-10-03T03:14:50.285Z,19.75
2022-10-03T03:17:17.375Z,19.69
2022-10-03T03:19:44.409Z,19.69
2022-10-03T03:22:11.400Z,19.63
2022-10-03T03:24:38.431Z,19.56
2022-10-03T03:27:05.454Z,19.56
2022-10-03T03:29:32.676Z,19.50
2022-10-03T03:31:59.797Z,19.50
2022-10-03T03:34:26.917Z,19.50
2022-10-03T03:36:56.072Z,19.44
2022-10-03T03:39:23.045Z,19.44
2022-10-03T03:41:50.060Z,19.38
2022-10-03T03:44:27.406Z,19.38
2022-10-03T03:46:56.502Z,19.31
2022-10-03T03:49:23.903Z,19.31
2022-10-03T03:51:50.850Z,19.31
2022-10-03T03:54:22.037Z,19.31
2022-10-03T03:56:49.037Z,19.25
2022-10-03T03:59:18.008Z,19.25
2022-10-03T04:01:44.988Z,19.25
2022-10-03T04:04:16.037Z,19.25
2022-10-03T04:06:43.080Z,19.19
2022-10-03T04:09:12.179Z,19.19
2022-10-03T04:11:44.524Z,19.19
2022-10-03T04:14:11.521Z,19.19
2022-10-03T04:16:38.615Z,19.19
2022-10-03T04:19:05.598Z,19.19
2022-10-03T04:21:32.618Z,19.19
2022-10-03T04:23:59.677Z,19.19
2022-10-03T04:26:26.697Z,19.19
2022-10-03T04:28:57.903Z,19.19
2022-10-03T04:31:25.011Z,19.19
2022-10-03T04:33:55.717Z,19.19
2022-10-03T04:36:25.507Z,19.19
2022-10-03T04:38:57.148Z,19.13
2022-10-03T04:41:24.107Z,19.13
2022-10-03T04:44:00.233Z,19.13
2022-10-03T04:46:27.497Z,19.13
2022-10-03T04:48:56.698Z,19.13
2022-10-03T04:51:23.662Z,19.13
2022-10-03T04:53:51.686Z,19.06
2022-10-03T04:56:27.485Z,19.06
2022-10-03T04:58:54.526Z,19.06
2022-10-03T05:01:23.202Z,19.06
2022-10-03T05:03:50.177Z,19.06
2022-10-03T05:06:17.183Z,19.06
2022-10-03T05:08:45.268Z,19.00
2022-10-03T05:11:12.415Z,22.56
2022-10-03T05:13:39.516Z,25.81
2022-10-03T05:16:08.593Z,27.44
2022-10-03T05:18:35.571Z,28.31
2022-10-03T05:21:04.997Z,29.56
2022-10-03T05:23:32.003Z,30.13
2022-10-03T05:26:16.397Z,30.50
2022-10-03T05:28:45.961Z,31.56
2022-10-03T05:31:13.050Z,31.88
2022-10-03T05:33:41.317Z,32.31
2022-10-03T05:36:08.279Z,33.13
2022-10-03T05:38:37.508Z,33.44
2022-10-03T05:41:07.003Z,33.75
2022-10-03T05:43:34.198Z,34.50
2022-10-03T05:46:05.012Z,34.75
2022-10-03T05:48:32.234Z,34.88
2022-10-03T05:51:00.857Z,35.63
2022-10-03T05:53:27.865Z,35.75
2022-10-03T05:55:54.812Z,35.94
2022-10-03T05:58:21.792Z,36.00
2022-10-03T06:00:48.871Z,36.56
2022-10-03T06:03:15.896Z,36.63
2022-10-03T06:05:44.993Z,36.81
2022-10-03T06:08:12.016Z,37.00
2022-10-03T06:10:39.051Z,37.25
2022-10-03T06:13:06.072Z,37.44
2022-10-03T06:15:33.185Z,37.69
2022-10-03T06:18:01.144Z,37.88
2022-10-03T06:20:28.113Z,38.06
2022-10-03T06:22:57.336Z,38.31
2022-10-03T06:25:24.294Z,38.56
2022-10-03T06:27:53.361Z,38.81
2022-10-03T06:30:20.381Z,39.13
2022-10-03T06:32:47.396Z,39.31
2022-10-03T06:35:14.454Z,39.56
2022-10-03T06:37:41.526Z,39.81
2022-10-03T06:40:10.047Z,40.00
2022-10-03T06:42:37.161Z,40.25
2022-10-03T06:45:04.199Z,40.50
2022-10-03T06:47:31.212Z,40.63
2022-10-03T06:49:58.209Z,40.56
2022-10-03T06:52:32.104Z,40.69
2022-10-03T06:54:59.115Z,40.38
2022-10-03T06:57:26.139Z,40.25
2022-10-03T06:59:53.127Z,40.81
2022-10-03T07:02:20.241Z,40.75
2022-10-03T07:04:47.277Z,40.38
2022-10-03T07:07:14.299Z,38.75
2022-10-03T07:15:57.803Z,36.81
2022-10-03T07:18:21.959Z,35.88
2022-10-03T07:20:50.616Z,35.19
2022-10-03T07:23:20.689Z,34.63
2022-10-03T07:25:48.236Z,34.13
2022-10-03T07:28:15.788Z,33.63
2022-10-03T07:30:43.697Z,33.19
2022-10-03T07:33:28.434Z,32.75
2022-10-03T07:35:58.955Z,32.38
2022-10-03T07:38:25.993Z,32.00
2022-10-03T07:40:52.924Z,31.69
2022-10-03T07:43:22.368Z,31.38
2022-10-03T07:45:49.440Z,31.06
2022-10-03T07:48:16.448Z,30.81
2022-10-03T07:50:43.425Z,30.50
2022-10-03T07:53:18.976Z,30.25
2022-10-03T07:55:47.138Z,30.00
2022-10-03T07:58:14.166Z,29.75
2022-10-03T08:00:41.095Z,29.50
2022-10-03T08:03:08.281Z,29.25
2022-10-03T08:05:35.449Z,29.06
2022-10-03T08:08:02.418Z,28.81
2022-10-03T08:10:29.425Z,28.63
2022-10-03T08:12:56.419Z,28.44
2022-10-03T08:15:27.358Z,28.19
2022-10-03T08:17:55.457Z,28.06
2022-10-03T08:20:24.796Z,27.81
2022-10-03T08:22:51.719Z,27.69
2022-10-03T08:25:19.082Z,27.50
2022-10-03T08:27:51.380Z,27.31
2022-10-03T08:30:27.345Z,27.13
2022-10-03T08:32:57.194Z,26.94
2022-10-03T08:35:24.164Z,26.81
2022-10-03T08:37:51.137Z,26.63
2022-10-03T08:40:18.234Z,26.50
2022-10-03T08:42:45.171Z,26.50
2022-10-03T08:45:13.849Z,26.56
2022-10-03T08:47:40.815Z,26.63
2022-10-03T08:50:18.714Z,26.63
2022-10-03T08:52:54.499Z,26.63
2022-10-03T08:55:21.479Z,26.63
2022-10-03T08:57:51.490Z,26.63
2022-10-03T09:00:18.473Z,26.63
2022-10-03T09:02:45.457Z,26.56
2022-10-03T09:05:12.477Z,26.56
2022-10-03T09:07:39.469Z,26.56
2022-10-03T09:10:06.524Z,26.56
2022-10-03T09:12:33.590Z,26.56
2022-10-03T09:15:00.591Z,26.56
2022-10-03T09:17:27.593Z,26.56
2022-10-03T09:19:54.598Z,26.56
2022-10-03T09:22:21.573Z,26.56
2022-10-03T09:24:49.814Z,26.56
2022-10-03T09:27:16.829Z,26.56
2022-10-03T09:29:45.420Z,26.50
2022-10-03T09:32:14.699Z,26.50
2022-10-03T09:34:41.695Z,26.50
2022-10-03T09:37:11.778Z,26.50
2022-10-03T09:39:38.807Z,26.50
2022-10-03T09:42:05.809Z,26.50
2022-10-03T09:44:32.778Z,26.50
2022-10-03T09:49:40.649Z,26.44
2022-10-03T09:52:09.029Z,26.50
2022-10-03T09:54:37.132Z,26.50
2022-10-03T09:57:04.169Z,26.56
2022-10-03T09:59:31.170Z,26.63
2022-10-03T10:01:58.188Z,26.63
2022-10-03T10:04:50.080Z,26.69
2022-10-03T10:07:12.114Z,26.81
2022-10-03T10:09:49.701Z,26.88
2022-10-03T10:12:22.928Z,27.00
2022-10-03T10:14:50.007Z,27.06
2022-10-03T10:17:17.010Z,27.13
2022-10-03T10:19:44.026Z,27.19
2022-10-03T10:22:11.023Z,27.25
2022-10-03T10:24:40.150Z,27.25
2022-10-03T10:27:07.132Z,27.25
2022-10-03T10:29:34.160Z,27.31
2022-10-03T10:32:07.006Z,27.31
2022-10-03T10:34:33.976Z,27.31
2022-10-03T10:37:00.997Z,27.25
2022-10-03T10:39:27.989Z,27.25
2022-10-03T10:41:54.974Z,27.25
2022-10-03T10:44:21.954Z,27.19
2022-10-03T10:46:49.072Z,27.13
2022-10-03T10:49:19.215Z,27.13
2022-10-03T10:51:46.194Z,27.19
2022-10-03T10:54:15.476Z,27.19
2022-10-03T10:56:42.887Z,27.25
2022-10-03T10:59:10.162Z,27.31
2022-10-03T11:01:43.905Z,27.38
2022-10-03T11:04:13.939Z,27.38
2022-10-03T11:06:48.370Z,27.44
2022-10-03T11:09:15.361Z,27.50
2022-10-03T11:11:42.330Z,27.50
2022-10-03T11:14:09.381Z,27.50
2022-10-03T11:16:36.424Z,27.50
2022-10-03T11:19:03.512Z,27.50
2022-10-03T11:21:30.499Z,27.50
2022-10-03T11:23:57.475Z,27.50
2022-10-03T11:26:27.284Z,27.44
2022-10-03T11:28:54.328Z,27.44
2022-10-03T11:31:30.487Z,27.38
2022-10-03T11:33:59.971Z,27.31
2022-10-03T11:36:26.939Z,27.31
2022-10-03T11:38:54.000Z,27.31
2022-10-03T11:41:20.995Z,27.38
2022-10-03T11:43:48.951Z,27.44
2022-10-03T11:46:16.083Z,27.50
2022-10-03T11:48:46.098Z,27.56
2022-10-03T11:51:17.397Z,27.56
2022-10-03T11:53:44.420Z,27.63
2022-10-03T11:56:11.418Z,27.63
2022-10-03T11:58:38.534Z,27.63
2022-10-03T12:01:05.511Z,27.63
2022-10-03T12:03:32.535Z,27.63
2022-10-03T12:05:59.565Z,27.63
2022-10-03T12:08:26.572Z,27.56
2022-10-03T12:10:53.631Z,27.56
2022-10-03T12:13:20.655Z,27.56
2022-10-03T12:15:47.609Z,27.50
2022-10-03T12:18:14.654Z,27.50
2022-10-03T12:20:41.678Z,27.50
2022-10-03T12:23:08.660Z,27.50
2022-10-03T12:25:35.770Z,27.56
2022-10-03T12:28:04.093Z,27.63
2022-10-03T12:30:31.319Z,27.69
2022-10-03T12:32:58.425Z,27.75
2022-10-03T12:35:25.494Z,27.81
2022-10-03T12:37:58.123Z,27.81
2022-10-03T12:40:26.341Z,27.81
2022-10-03T12:42:53.488Z,27.81
2022-10-03T12:45:22.750Z,27.81
2022-10-03T12:47:56.968Z,27.81
2022-10-03T12:50:23.996Z,27.81
2022-10-03T12:52:51.200Z,27.81
2022-10-03T12:55:18.373Z,27.75
2022-10-03T12:57:45.521Z,27.69
2022-10-03T13:00:12.646Z,27.63
2022-10-03T13:02:40.107Z,27.56
2022-10-03T13:05:07.361Z,27.56
2022-10-03T13:07:34.470Z,27.56
2022-10-03T13:10:01.604Z,27.63
2022-10-03T13:12:28.786Z,27.69
2022-10-03T13:14:55.986Z,27.75
2022-10-03T13:17:23.151Z,27.75
2022-10-03T13:19:52.222Z,27.81
2022-10-03T13:22:19.427Z,27.81
2022-10-03T13:30:08.119Z,27.81
2022-10-03T13:32:35.237Z,27.81
2022-10-03T13:35:02.226Z,27.81
2022-10-03T13:37:29.207Z,27.81
2022-10-03T13:39:57.589Z,27.75
2022-10-03T13:42:26.580Z,27.69
2022-10-03T13:44:53.633Z,27.63
2022-10-03T13:47:21.616Z,27.63
2022-10-03T13:49:48.767Z,27.56
2022-10-03T13:52:18.272Z,27.50
2022-10-03T13:54:50.246Z,27.56
2022-10-03T13:57:17.874Z,27.56
2022-10-03T13:59:44.948Z,27.63
2022-10-03T14:02:12.210Z,27.69
2022-10-03T14:04:42.475Z,27.69
2022-10-03T14:07:09.583Z,27.75
2022-10-03T14:09:36.668Z,27.75
2022-10-03T14:12:03.777Z,27.75
2022-10-03T14:14:34.034Z,27.75
2022-10-03T14:17:01.222Z,27.75
2022-10-03T14:19:30.137Z,27.75
2022-10-03T14:21:58.356Z,27.69
2022-10-03T14:24:25.346Z,27.63
2022-10-03T14:26:52.326Z,27.63
2022-10-03T14:29:19.469Z,27.56
2022-10-03T14:31:47.483Z,27.56
2022-10-03T14:34:14.476Z,27.44
2022-10-03T14:36:41.506Z,27.44
2022-10-03T14:39:09.509Z,27.50
2022-10-03T14:41:36.722Z,27.50
2022-10-03T14:44:10.870Z,27.56
2022-10-03T14:46:40.154Z,27.56
2022-10-03T14:49:16.415Z,27.63
2022-10-03T14:51:54.610Z,27.69
2022-10-03T14:54:21.726Z,27.69
2022-10-03T14:56:48.887Z,27.69
2022-10-03T14:59:17.140Z,27.69
2022-10-03T15:01:44.455Z,27.63
2022-10-03T15:04:11.505Z,27.63
2022-10-03T15:06:38.683Z,27.56
2022-10-03T15:09:05.743Z,27.56
2022-10-03T15:11:32.777Z,27.50
2022-10-03T15:14:00.780Z,27.44
2022-10-03T15:16:28.086Z,27.38
2022-10-03T15:18:58.196Z,27.31
2022-10-03T15:21:25.419Z,27.38
2022-10-03T15:23:52.630Z,27.38
2022-10-03T15:26:26.410Z,27.44
2022-10-03T15:28:54.155Z,27.44
2022-10-03T15:31:21.387Z,27.50
2022-10-03T15:33:48.557Z,27.50
2022-10-03T15:36:15.814Z,27.56
2022-10-03T15:38:42.824Z,27.56
2022-10-03T15:41:09.995Z,27.56
2022-10-03T15:43:37.063Z,27.56
2022-10-03T15:46:04.201Z,27.56
2022-10-03T15:48:31.460Z,27.56
2022-10-03T15:50:58.669Z,27.50
2022-10-03T15:53:37.225Z,27.50
2022-10-03T15:56:04.772Z,27.44
2022-10-03T15:58:33.135Z,27.38
2022-10-03T16:01:00.330Z,27.31
2022-10-03T16:03:27.384Z,27.31
2022-10-03T16:05:54.470Z,27.31
2022-10-03T16:08:21.580Z,27.31
2022-10-03T16:10:48.683Z,27.38
2022-10-03T16:13:15.744Z,27.38
2022-10-03T16:15:42.899Z,27.44
2022-10-03T16:18:10.004Z,27.44
2022-10-03T16:20:37.195Z,27.50
2022-10-03T16:23:04.346Z,27.50
2022-10-03T16:25:31.495Z,27.50
2022-10-03T16:27:58.632Z,27.56
2022-10-03T16:30:25.857Z,27.56
2022-10-03T16:32:53.210Z,27.50
2022-10-03T16:35:20.400Z,27.50
2022-10-03T16:37:47.551Z,27.50
2022-10-03T16:40:14.650Z,27.44
2022-10-03T16:42:41.781Z,27.38
2022-10-03T16:45:08.898Z,27.38
2022-10-03T16:47:35.949Z,27.31
2022-10-03T16:50:03.220Z,27.25
2022-10-03T16:52:30.455Z,27.31
2022-10-03T16:54:57.549Z,27.38
2022-10-03T16:57:24.790Z,27.38
2022-10-03T16:59:51.875Z,27.44
2022-10-03T17:02:19.210Z,27.44
2022-10-03T17:04:46.376Z,27.50
2022-10-03T17:07:13.541Z,27.50
2022-10-03T17:09:40.687Z,27.50
2022-10-03T17:12:07.931Z,27.56
2022-10-03T17:14:35.125Z,27.56
2022-10-03T17:17:02.148Z,27.56
2022-10-03T17:19:29.192Z,27.56
2022-10-03T17:21:58.940Z,27.50
2022-10-03T17:24:27.302Z,27.50
2022-10-03T17:26:54.354Z,27.44
2022-10-03T17:29:21.322Z,27.44
2022-10-03T17:31:48.366Z,27.38
2022-10-03T17:34:15.398Z,27.38
2022-10-03T17:36:42.480Z,27.38
2022-10-03T17:39:13.415Z,27.38
2022-10-03T17:41:40.734Z,27.44
2022-10-03T17:44:07.959Z,27.50
2022-10-03T17:46:35.006Z,27.50
2022-10-03T17:49:01.960Z,27.56
2022-10-03T17:51:28.942Z,27.63
2022-10-03T17:53:57.856Z,27.63
2022-10-03T17:56:27.127Z,27.69
2022-10-03T17:58:54.173Z,27.69
2022-10-03T18:01:21.251Z,27.69
2022-10-03T18:03:48.288Z,27.69
2022-10-03T18:06:15.911Z,27.69
2022-10-03T18:08:45.779Z,27.63
2022-10-03T18:11:14.168Z,27.63
2022-10-03T18:13:42.674Z,27.56
2022-10-03T18:16:09.867Z,27.50
2022-10-03T18:18:39.087Z,27.50
2022-10-03T18:21:06.206Z,27.44
2022-10-03T18:23:53.706Z,27.44
2022-10-03T18:26:21.485Z,27.50
2022-10-03T18:28:48.509Z,27.56
2022-10-03T18:31:20.610Z,27.56
2022-10-03T18:33:47.895Z,27.63
2022-10-03T18:36:15.151Z,27.69
2022-10-03T18:38:42.385Z,27.69
2022-10-03T18:41:09.607Z,27.75
2022-10-03T18:43:36.802Z,27.75
2022-10-03T18:46:03.988Z,27.75
2022-10-03T18:48:31.357Z,27.75
2022-10-03T18:50:58.434Z,27.69
2022-10-03T18:53:25.671Z,27.69
2022-10-03T18:55:52.873Z,27.69
2022-10-03T18:58:19.950Z,27.63
2022-10-03T19:00:47.193Z,27.56
2022-10-03T19:03:15.585Z,27.50
2022-10-03T19:05:42.609Z,27.38
2022-10-03T19:08:09.779Z,27.31
2022-10-03T19:10:39.768Z,27.19
2022-10-03T19:13:07.079Z,27.06
2022-10-03T19:15:34.291Z,26.94
2022-10-03T19:18:01.453Z,26.81
2022-10-03T19:20:28.559Z,26.69
2022-10-03T19:22:55.711Z,26.56
2022-10-03T19:25:22.921Z,26.44
2022-10-03T19:27:50.378Z,26.31
2022-10-03T19:30:17.517Z,26.19
2022-10-03T19:32:44.842Z,26.06
2022-10-03T19:35:12.090Z,25.94
2022-10-03T19:37:44.439Z,25.88
2022-10-03T19:40:12.638Z,25.75
2022-10-03T19:42:40.290Z,25.63
2022-10-03T19:45:07.719Z,25.50
2022-10-03T19:47:35.073Z,25.44
2022-10-03T19:50:02.617Z,25.31
2022-10-03T19:52:31.687Z,25.19
2022-10-03T19:54:58.712Z,25.13
2022-10-03T19:57:25.750Z,25.00
2022-10-03T19:59:53.771Z,24.94
2022-10-03T20:02:20.979Z,24.81
2022-10-03T20:04:48.037Z,24.69
2022-10-03T20:07:15.072Z,24.63
2022-10-03T20:09:42.256Z,24.50
2022-10-03T20:12:12.024Z,24.44
2022-10-03T20:14:39.079Z,24.38
2022-10-03T20:17:08.055Z,24.25
2022-10-03T20:19:34.997Z,24.19
2022-10-03T20:22:01.968Z,24.13
2022-10-03T20:24:28.975Z,24.00
2022-10-03T20:26:56.065Z,23.94
2022-10-03T20:29:23.054Z,23.88
2022-10-03T20:31:50.092Z,23.81
2022-10-03T20:34:17.148Z,23.69
2022-10-03T20:36:44.150Z,23.63
2022-10-03T20:39:11.103Z,23.56
2022-10-03T20:41:38.215Z,23.44
2022-10-03T20:44:05.467Z,23.38
2022-10-03T20:46:32.454Z,23.31
2022-10-03T20:48:59.467Z,23.25
2022-10-03T20:51:27.732Z,23.19
2022-10-03T20:53:54.880Z,23.13
2022-10-03T20:56:21.907Z,23.06
2022-10-03T20:58:50.991Z,23.00
2022-10-03T21:01:18.282Z,22.94
2022-10-03T21:03:45.288Z,22.88
2022-10-03T21:06:15.413Z,22.81
2022-10-03T21:08:42.399Z,22.75
2022-10-03T21:11:09.378Z,22.75
2022-10-03T21:13:36.332Z,22.69
2022-10-03T21:16:03.390Z,22.63
2022-10-03T21:18:30.401Z,22.56
2022-10-03T21:20:57.394Z,22.50
2022-10-03T21:23:24.390Z,22.44
2022-10-03T21:25:51.374Z,22.38
2022-10-03T21:28:18.447Z,22.31
2022-10-03T21:30:45.447Z,22.31
2022-10-03T21:33:13.943Z,22.25
2022-10-03T21:35:40.919Z,22.19
2022-10-03T21:38:07.959Z,22.13
2022-10-03T21:40:34.931Z,22.06
2022-10-03T21:43:01.921Z,22.06
2022-10-03T21:45:28.913Z,22.00
2022-10-03T21:47:56.019Z,22.00
2022-10-03T21:50:23.013Z,21.94
2022-10-03T21:52:50.050Z,21.88
2022-10-03T21:55:17.067Z,21.81
2022-10-03T21:57:44.019Z,21.81
2022-10-03T22:00:11.090Z,21.75
2022-10-03T22:02:38.223Z,21.69
2022-10-03T22:05:05.350Z,21.69
2022-10-03T22:07:35.345Z,21.63
2022-10-03T22:10:02.327Z,21.63
2022-10-03T22:12:29.315Z,21.56
2022-10-03T22:15:02.503Z,21.56
2022-10-03T22:17:29.672Z,21.50
2022-10-03T22:19:56.741Z,21.50
2022-10-03T22:22:25.550Z,21.44
2022-10-03T22:24:52.671Z,21.44
2022-10-03T22:27:19.644Z,21.44
2022-10-03T22:29:48.600Z,21.44
2022-10-03T22:32:15.598Z,21.44
2022-10-03T22:34:42.777Z,21.50
2022-10-03T22:37:09.787Z,21.56
2022-10-03T22:39:37.767Z,21.56
2022-10-03T22:42:09.083Z,21.69
2022-10-03T22:44:36.084Z,21.75
2022-10-03T22:47:03.114Z,21.81
2022-10-03T22:49:30.203Z,21.88
2022-10-03T22:51:57.196Z,21.88
2022-10-03T22:54:24.242Z,21.88
2022-10-03T22:56:51.321Z,21.88
2022-10-03T22:59:18.280Z,21.88
2022-10-03T23:01:45.254Z,21.81
2022-10-03T23:04:12.360Z,21.81
2022-10-03T23:06:42.056Z,21.75
2022-10-03T23:09:09.049Z,21.75
2022-10-03T23:11:36.035Z,21.69
2022-10-03T23:14:03.160Z,21.63
2022-10-03T23:16:30.177Z,21.63
2022-10-03T23:18:57.150Z,21.56
2022-10-03T23:21:24.107Z,21.56
2022-10-03T23:23:51.113Z,21.50
2022-10-03T23:26:18.265Z,21.44
2022-10-03T23:28:45.224Z,21.38
2022-10-03T23:31:12.256Z,21.38
2022-10-03T23:33:39.411Z,21.31
2022-10-03T23:36:06.541Z,21.25
2022-10-03T23:38:33.545Z,21.25
2022-10-03T23:41:00.588Z,21.19
2022-10-03T23:43:27.575Z,21.13
2022-10-03T23:45:54.624Z,21.13
2022-10-03T23:48:21.664Z,21.06
2022-10-03T23:50:48.637Z,21.00
2022-10-03T23:53:15.774Z,21.00
2022-10-03T23:55:44.767Z,20.94
2022-10-03T23:58:11.730Z,20.94
